Time;durP1;ratioP1;P1;durP2;ratioP2;P2;SDS_P1;SDS_P2;PMS_P1;PMS_P2;Temp;Humidity;BMP_temperature;BMP_pressure;BME280_temperature;BME280_humidity;BME280_pressure;Samples;Min_cycle;Max_cycle;Signal;HPM_P1;HPM_P2
2021/05/27 00:01:52;;;;;;;14.38;7.08;;;;;;;15.43;79.01;99741.94;1773673;80;21048;-81
2021/05/27 00:04:18;;;;;;;11.57;7.67;;;;;;;15.45;79.11;99737.42;1774125;80;21491;-79
2021/05/27 00:06:45;;;;;;;13.83;7.30;;;;;;;15.47;79.19;99734.30;1774235;80;20915;-81
2021/05/27 00:09:12;;;;;;;14.28;7.70;;;;;;;15.50;79.26;99734.41;1774260;80;21072;-80
2021/05/27 00:11:40;;;;;;;13.18;7.75;;;;;;;15.54;79.33;99741.47;1774297;80;20959;-81
2021/05/27 00:14:06;;;;;;;12.30;8.10;;;;;;;15.56;79.38;99734.97;1774164;80;21665;-80
2021/05/27 00:16:32;;;;;;;9.45;7.47;;;;;;;15.58;79.45;99734.86;1774201;80;20915;-79
2021/05/27 00:19:00;;;;;;;16.15;8.10;;;;;;;15.61;79.50;99729.78;1774014;80;21528;-80
2021/05/27 00:21:26;;;;;;;11.70;7.53;;;;;;;15.63;79.53;99732.98;1774027;80;20867;-79
2021/05/27 00:23:53;;;;;;;18.85;8.03;;;;;;;15.64;79.49;99729.08;1774034;80;20899;-81
2021/05/27 00:26:20;;;;;;;13.43;8.43;;;;;;;15.65;79.47;99732.89;1774208;80;21081;-79
2021/05/27 00:28:48;;;;;;;13.48;8.10;;;;;;;15.67;79.47;99726.98;1774254;80;21464;-81
2021/05/27 00:31:15;;;;;;;14.50;8.73;;;;;;;15.69;79.46;99730.22;1774237;80;20887;-80
2021/05/27 00:33:41;;;;;;;11.08;8.18;;;;;;;15.69;79.46;99721.89;1774114;80;20955;-81
2021/05/27 00:36:08;;;;;;;10.78;7.72;;;;;;;15.70;79.43;99724.31;1774361;80;21535;-80
2021/05/27 00:38:34;;;;;;;16.85;8.58;;;;;;;15.71;79.40;99720.97;1774214;80;21260;-81
2021/05/27 00:41:01;;;;;;;14.58;9.75;;;;;;;15.70;79.37;99724.31;1774309;80;21023;-80
2021/05/27 00:43:27;;;;;;;13.20;9.25;;;;;;;15.70;79.35;99719.33;1774529;80;20852;-81
2021/05/27 00:45:53;;;;;;;13.00;8.25;;;;;;;15.70;79.33;99719.33;1772770;80;21101;-80
2021/05/27 00:51:06;;;;;;;19.92;8.35;;;;;;;15.69;79.33;99724.06;1774399;80;21083;-79
2021/05/27 00:53:33;;;;;;;14.30;9.05;;;;;;;15.70;79.35;99720.72;1761576;80;20944;-78
2021/05/27 00:56:01;;;;;;;12.70;8.78;;;;;;;15.70;79.37;99713.20;1756287;81;21528;-79
2021/05/27 00:58:27;;;;;;;15.00;8.73;;;;;;;15.70;79.41;99716.55;1756323;81;20889;-79
2021/05/27 01:00:53;;;;;;;13.75;9.45;;;;;;;15.69;79.46;99719.91;1756570;81;20892;-82
2021/05/27 01:03:24;;;;;;;11.05;8.75;;;;;;;15.69;79.54;99712.96;1756528;81;21603;-79
2021/05/27 01:05:48;;;;;;;18.60;9.18;;;;;;;15.70;79.65;99713.78;1754489;81;21579;-80
2021/05/27 01:08:17;;;;;;;11.53;9.58;;;;;;;15.69;79.62;99716.34;1755139;81;20996;-79
2021/05/27 01:10:46;;;;;;;15.68;9.18;;;;;;;15.70;79.67;99720.15;1756278;81;20900;-78
2021/05/27 01:13:13;;;;;;;13.78;8.83;;;;;;;15.69;79.74;99708.00;1756239;81;20948;-81
2021/05/27 01:15:40;;;;;;;11.85;8.38;;;;;;;15.68;79.74;99709.14;1756354;81;21155;-79
2021/05/27 01:18:16;;;;;;;10.75;8.63;;;;;;;15.68;79.78;99713.31;1756187;81;20840;-79
2021/05/27 01:20:47;;;;;;;14.18;8.80;;;;;;;15.69;79.80;99717.13;1760213;80;21006;-78
2021/05/27 01:23:14;;;;;;;14.25;8.70;;;;;;;15.70;79.81;99707.66;1777659;80;20998;-79
2021/05/27 01:25:53;;;;;;;14.10;9.10;;;;;;;15.70;79.75;99711.82;1777374;80;20943;-79
2021/05/27 01:28:19;;;;;;;15.18;10.60;;;;;;;15.71;79.74;99711.25;1777504;80;21134;-81
2021/05/27 01:30:47;;;;;;;20.68;9.80;;;;;;;15.72;79.81;99711.47;1778611;80;20967;-78
2021/05/27 01:33:17;;;;;;;16.37;9.40;;;;;;;15.73;79.80;99713.07;1776356;79;20970;-80
2021/05/27 01:35:45;;;;;;;16.62;10.68;;;;;;;15.73;79.79;99712.28;1778249;80;20927;-78
2021/05/27 01:38:18;;;;;;;14.63;10.18;;;;;;;15.73;79.78;99709.50;1776955;80;21073;-79
2021/05/27 01:40:47;;;;;;;12.03;9.53;;;;;;;15.74;79.76;99715.28;1778101;80;21696;-81
2021/05/27 01:43:14;;;;;;;14.60;10.15;;;;;;;15.69;79.84;99716.34;1778279;80;20863;-78
2021/05/27 01:45:41;;;;;;;15.53;9.50;;;;;;;15.68;79.87;99714.70;1778426;80;20978;-80
2021/05/27 01:48:08;;;;;;;18.87;10.00;;;;;;;15.66;79.90;99712.27;1778150;80;21467;-80
2021/05/27 01:50:35;;;;;;;11.95;9.50;;;;;;;15.64;79.99;99711.84;1777794;80;20963;-80
2021/05/27 01:53:04;;;;;;;15.38;9.50;;;;;;;15.65;79.99;99708.46;1776579;80;21673;-79
2021/05/27 01:55:30;;;;;;;13.90;9.35;;;;;;;15.65;79.96;99712.63;1754221;80;20946;-80
2021/05/27 01:57:58;;;;;;;18.73;10.32;;;;;;;15.64;80.03;99706.28;1776712;80;21089;-80
2021/05/27 02:00:28;;;;;;;14.70;9.83;;;;;;;15.65;80.01;99702.34;1778373;80;20899;-80
2021/05/27 02:02:55;;;;;;;16.60;10.82;;;;;;;15.65;80.01;99707.89;1778000;80;21045;-79
2021/05/27 02:05:24;;;;;;;12.88;9.18;;;;;;;15.66;80.00;99707.32;1777575;80;21112;-78
2021/05/27 02:07:52;;;;;;;17.35;9.25;;;;;;;15.67;80.02;99701.98;1776268;80;21066;-79
2021/05/27 02:10:21;;;;;;;15.70;9.03;;;;;;;15.67;80.03;99697.81;1776944;80;21551;-80
2021/05/27 02:12:49;;;;;;;16.45;9.53;;;;;;;15.68;80.08;99704.41;1778201;80;21575;-80
2021/05/27 02:15:19;;;;;;;14.93;8.75;;;;;;;15.70;80.11;99702.67;1778203;80;21026;-80
2021/05/27 02:17:45;;;;;;;14.70;9.43;;;;;;;15.69;80.13;99701.84;1778411;80;21067;-79
2021/05/27 02:20:13;;;;;;;13.30;9.35;;;;;;;15.71;80.17;99708.47;1778214;80;21101;-78
2021/05/27 02:22:40;;;;;;;14.38;9.00;;;;;;;15.72;80.18;99712.03;1758129;80;21054;-79
2021/05/27 02:25:11;;;;;;;13.75;9.70;;;;;;;15.72;80.21;99705.91;1755025;81;21693;-79
2021/05/27 02:27:38;;;;;;;23.45;10.45;;;;;;;15.73;80.23;99697.80;1755863;81;20987;-79
2021/05/27 02:30:07;;;;;;;17.60;9.25;;;;;;;15.74;80.25;99699.43;1754760;81;21674;-77
2021/05/27 02:32:35;;;;;;;15.32;10.15;;;;;;;15.76;80.27;99696.30;1756233;81;20876;-78
2021/05/27 02:35:04;;;;;;;14.10;9.90;;;;;;;15.78;80.28;99698.94;1756408;81;20967;-81
2021/05/27 02:37:31;;;;;;;16.15;10.30;;;;;;;15.80;80.33;99691.07;1756352;81;20944;-79
2021/05/27 02:39:58;;;;;;;16.00;10.45;;;;;;;15.82;80.39;99687.94;1755969;81;20960;-77
2021/05/27 02:42:24;;;;;;;16.77;10.75;;;;;;;15.85;80.38;99692.00;1755655;81;21028;-77
2021/05/27 02:44:52;;;;;;;15.30;10.50;;;;;;;15.84;80.42;99690.36;1755344;81;21051;-77
2021/05/27 02:47:21;;;;;;;12.60;10.15;;;;;;;15.84;80.47;99691.19;1755698;81;20979;-80
2021/05/27 02:49:47;;;;;;;13.32;11.38;;;;;;;15.81;80.55;99690.50;1755191;81;21567;-80
2021/05/27 02:52:14;;;;;;;17.65;11.33;;;;;;;15.81;80.63;99681.56;1756220;81;20932;-81
2021/05/27 02:54:43;;;;;;;18.30;12.10;;;;;;;15.85;80.68;99685.05;1756057;81;20943;-77
2021/05/27 02:57:10;;;;;;;20.08;12.03;;;;;;;15.88;80.71;99688.52;1756396;81;20999;-82
2021/05/27 02:59:37;;;;;;;15.75;12.25;;;;;;;15.90;80.76;99682.81;1756315;81;20885;-79
2021/05/27 03:02:04;;;;;;;18.50;13.28;;;;;;;15.94;80.80;99680.96;1756347;81;20877;-78
2021/05/27 03:04:34;;;;;;;19.00;12.13;;;;;;;15.98;80.85;99676.91;1756411;81;21511;-81
2021/05/27 03:07:01;;;;;;;18.30;13.45;;;;;;;16.02;80.91;99672.27;1756314;81;21077;-79
2021/05/27 03:09:28;;;;;;;16.20;12.60;;;;;;;16.05;80.88;99668.78;1756266;81;20880;-80
2021/05/27 03:11:54;;;;;;;19.73;11.95;;;;;;;16.10;80.88;99671.09;1756388;81;21017;-79
2021/05/27 03:14:22;;;;;;;19.75;12.13;;;;;;;16.13;80.85;99669.80;1754981;81;21115;-77
2021/05/27 03:16:53;;;;;;;19.10;13.88;;;;;;;16.16;80.83;99671.87;1755997;81;20904;-79
2021/05/27 03:19:20;;;;;;;23.47;14.63;;;;;;;16.20;80.79;99669.19;1755259;81;21610;-80
2021/05/27 03:21:47;;;;;;;18.75;13.38;;;;;;;16.23;80.81;99669.87;1756237;80;21468;-79
2021/05/27 03:24:16;;;;;;;18.07;13.20;;;;;;;16.27;80.77;99669.97;1756198;81;21544;-78
2021/05/27 03:26:42;;;;;;;20.90;13.88;;;;;;;16.29;80.73;99672.61;1756168;81;20971;-78
2021/05/27 03:29:10;;;;;;;21.55;14.05;;;;;;;16.33;80.68;99677.45;1756328;81;20987;-79
2021/05/27 03:31:38;;;;;;;20.95;15.00;;;;;;;16.34;80.62;99672.95;1755898;81;21094;-79
2021/05/27 03:34:06;;;;;;;28.70;16.10;;;;;;;16.38;80.58;99671.63;1754915;81;20971;-79
2021/05/27 03:36:32;;;;;;;22.40;15.15;;;;;;;16.38;80.59;99669.67;1756220;81;20976;-79
2021/05/27 03:38:59;;;;;;;27.22;15.03;;;;;;;16.39;80.55;99669.88;1755579;81;21031;-79
2021/05/27 03:41:26;;;;;;;20.68;13.35;;;;;;;16.40;80.51;99679.86;1754962;81;20963;-80
2021/05/27 03:43:54;;;;;;;43.87;15.72;;;;;;;16.42;80.43;99673.37;1756275;81;21310;-79
2021/05/27 03:46:23;;;;;;;34.63;16.15;;;;;;;16.43;80.40;99674.16;1756109;81;20916;-80
2021/05/27 03:48:52;;;;;;;31.17;14.68;;;;;;;16.45;80.40;99668.23;1755848;81;21007;-77
2021/05/27 03:51:20;;;;;;;30.00;16.00;;;;;;;16.45;80.36;99668.23;1754331;81;21175;-80
2021/05/27 03:53:47;;;;;;;24.87;15.80;;;;;;;16.48;80.36;99664.77;1756098;81;21645;-81
2021/05/27 03:56:14;;;;;;;34.38;17.20;;;;;;;16.49;80.38;99671.36;1756004;81;21248;-81
2021/05/27 04:01:29;;;;;;;29.95;16.27;;;;;;;16.54;80.42;99658.58;1755920;81;21051;-77
2021/05/27 04:09:28;;;;;;;27.50;17.92;;;;;;;16.70;80.59;99666.10;1756301;81;21838;-80
2021/05/27 04:14:41;;;;;;;29.02;16.80;;;;;;;16.81;80.72;99664.17;1756438;81;20944;-78
2021/05/27 04:17:10;;;;;;;29.40;17.37;;;;;;;16.87;80.87;99653.02;1756083;81;21512;-80
2021/05/27 04:19:37;;;;;;;29.00;15.60;;;;;;;16.92;80.96;99655.53;1756128;81;20992;-80
2021/05/27 04:22:03;;;;;;;33.02;17.75;;;;;;;16.99;81.21;99659.07;1762838;79;21074;-79
2021/05/27 04:24:30;;;;;;;32.30;15.83;;;;;;;17.06;81.24;99661.22;1778614;79;21060;-79
2021/05/27 04:26:57;;;;;;;25.82;16.37;;;;;;;17.14;81.39;99663.81;1783437;78;20880;-79
2021/05/27 04:29:23;;;;;;;26.50;15.20;;;;;;;17.23;81.56;99669.20;1789414;78;21386;-80
2021/05/27 04:31:49;;;;;;;21.23;14.70;;;;;;;17.32;81.71;99664.01;1750139;79;21115;-79
2021/05/27 04:34:16;;;;;;;20.88;13.60;;;;;;;17.40;81.67;99668.56;1713040;83;21063;-79
2021/05/27 04:36:42;;;;;;;18.00;11.40;;;;;;;17.49;81.58;99667.80;1712411;83;21046;-80
2021/05/27 04:39:09;;;;;;;14.58;10.98;;;;;;;17.58;81.48;99663.41;1686428;83;20974;-80
2021/05/27 04:41:35;;;;;;;13.78;11.08;;;;;;;17.67;81.30;99664.60;1736943;80;21065;-78
2021/05/27 04:44:02;;;;;;;17.35;10.82;;;;;;;17.76;81.08;99664.36;1735496;80;21002;-81
2021/05/27 04:46:28;;;;;;;14.90;10.38;;;;;;;17.83;80.83;99669.28;1737992;80;21621;-80
2021/05/27 04:48:55;;;;;;;11.30;9.55;;;;;;;17.89;80.58;99662.26;1752401;80;21014;-79
2021/05/27 04:51:23;;;;;;;24.27;9.10;;;;;;;17.95;80.35;99659.97;1743503;80;20965;-81
2021/05/27 04:53:49;;;;;;;15.72;8.33;;;;;;;18.00;80.15;99664.67;1744160;80;21042;-79
2021/05/27 04:56:15;;;;;;;11.43;6.90;;;;;;;18.06;79.98;99667.16;1768564;79;21625;-82
2021/05/27 04:58:42;;;;;;;9.40;7.58;;;;;;;18.10;79.77;99662.48;1761819;79;21164;-80
2021/05/27 05:01:09;;;;;;;11.75;8.68;;;;;;;18.15;79.68;99661.39;1743119;81;21078;-81
2021/05/27 05:03:35;;;;;;;16.65;8.63;;;;;;;18.21;79.62;99661.30;1736722;81;21038;-79
2021/05/27 05:06:02;;;;;;;14.95;10.25;;;;;;;18.27;79.45;99657.64;1733031;81;21003;-80
2021/05/27 05:08:29;;;;;;;18.42;10.03;;;;;;;18.32;79.34;99660.13;1730485;82;21058;-79
2021/05/27 05:10:57;;;;;;;14.07;9.90;;;;;;;18.36;79.05;99659.59;1735964;81;21469;-78
2021/05/27 05:13:23;;;;;;;17.25;9.25;;;;;;;18.39;78.68;99667.20;1725956;81;20983;-80
2021/05/27 05:15:51;;;;;;;12.60;8.63;;;;;;;18.39;78.57;99656.66;1755928;80;21164;-79
2021/05/27 05:18:17;;;;;;;12.80;8.38;;;;;;;18.42;78.42;99660.91;1733625;81;21013;-79
2021/05/27 05:20:52;;;;;;;11.80;7.72;;;;;;;18.46;78.26;99662.34;1782656;80;20966;-80
2021/05/27 05:23:18;;;;;;;15.15;6.30;;;;;;;18.48;77.88;99653.84;1738760;82;21053;-80
2021/05/27 05:25:45;;;;;;;10.85;6.33;;;;;;;18.52;77.69;99659.48;1737607;82;20983;-80
2021/05/27 05:28:14;;;;;;;7.65;6.28;;;;;;;18.56;77.57;99664.52;1738414;82;21136;-80
2021/05/27 05:30:41;;;;;;;9.25;6.42;;;;;;;18.60;77.37;99654.83;1738676;82;21573;-79
2021/05/27 05:33:08;;;;;;;10.72;8.80;;;;;;;18.66;77.36;99656.16;1738942;82;20907;-78
2021/05/27 05:35:34;;;;;;;10.53;7.42;;;;;;;18.71;77.20;99655.81;1738831;82;21085;-79
2021/05/27 05:38:02;;;;;;;9.78;7.50;;;;;;;18.73;76.86;99649.89;1738781;82;21523;-80
2021/05/27 05:40:30;;;;;;;11.05;6.55;;;;;;;18.73;76.44;99650.67;1739230;82;20932;-81
2021/05/27 05:42:56;;;;;;;16.00;6.00;;;;;;;18.73;76.05;99651.28;1739184;82;20932;-81
2021/05/27 05:45:23;;;;;;;11.03;6.28;;;;;;;18.71;75.64;99646.66;1739340;82;20995;-81
2021/05/27 05:47:51;;;;;;;11.43;7.42;;;;;;;18.72;75.47;99648.25;1739200;82;21123;-78
2021/05/27 05:50:45;;;;;;;11.68;6.60;;;;;;;18.72;75.45;99644.88;1739179;82;21548;-81
2021/05/27 05:52:47;;;;;;;7.70;6.55;;;;;;;18.73;75.28;99650.67;1735880;82;20856;-79
2021/05/27 05:55:14;;;;;;;8.98;6.25;;;;;;;18.76;75.14;99653.90;1739249;82;20931;-80
2021/05/27 05:57:40;;;;;;;11.25;6.50;;;;;;;18.76;74.90;99651.11;1739217;82;20994;-80
2021/05/27 06:00:10;;;;;;;10.28;6.90;;;;;;;18.76;74.96;99649.72;1739310;82;20871;-79
2021/05/27 06:02:43;;;;;;;12.43;7.10;;;;;;;18.80;74.98;99646.41;1739140;82;21006;-80
2021/05/27 06:05:12;;;;;;;9.05;6.25;;;;;;;18.85;75.01;99642.69;1704558;83;20944;-80
2021/05/27 06:07:46;;;;;;;15.93;7.05;;;;;;;18.91;75.11;99640.40;1735526;82;20868;-79
2021/05/27 06:10:12;;;;;;;11.03;6.80;;;;;;;18.99;74.94;99645.49;1736774;82;21579;-81
2021/05/27 06:12:40;;;;;;;10.03;7.00;;;;;;;19.06;74.71;99646.20;1712995;82;21114;-78
2021/05/27 06:15:08;;;;;;;9.95;7.20;;;;;;;19.11;74.51;99643.11;1739154;82;20912;-81
2021/05/27 06:17:35;;;;;;;12.45;6.97;;;;;;;19.14;74.21;99647.94;1739160;82;20884;-80
2021/05/27 06:20:02;;;;;;;11.03;7.62;;;;;;;19.21;74.07;99650.84;1739169;82;21587;-80
2021/05/27 06:22:30;;;;;;;8.50;7.00;;;;;;;19.28;73.70;99650.73;1737776;82;20922;-79
2021/05/27 06:24:57;;;;;;;10.28;7.22;;;;;;;19.33;73.67;99649.01;1744856;82;21140;-80
2021/05/27 06:27:23;;;;;;;7.95;6.70;;;;;;;19.39;73.17;99650.31;1744830;82;21539;-80
2021/05/27 06:29:49;;;;;;;8.50;7.08;;;;;;;19.43;72.51;99646.96;1744707;82;20994;-78
2021/05/27 06:32:16;;;;;;;12.10;6.78;;;;;;;19.44;71.93;99655.58;1744797;81;21049;-79
2021/05/27 06:34:44;;;;;;;11.68;7.40;;;;;;;19.41;71.50;99649.35;1744884;81;20987;-78
2021/05/27 06:37:10;;;;;;;11.88;6.10;;;;;;;19.36;71.43;99653.87;1744855;81;21090;-78
2021/05/27 06:39:36;;;;;;;8.75;6.58;;;;;;;19.32;71.36;99659.40;1744661;82;20952;-79
2021/05/27 06:42:04;;;;;;;9.38;6.87;;;;;;;19.29;71.21;99660.16;1744919;81;20967;-81
2021/05/27 06:44:30;;;;;;;9.30;6.20;;;;;;;19.27;71.24;99664.48;1744690;82;21010;-80
2021/05/27 06:46:57;;;;;;;9.38;5.30;;;;;;;19.28;71.59;99653.52;1744959;82;21421;-78
2021/05/27 06:49:23;;;;;;;11.12;5.92;;;;;;;19.29;71.36;99655.97;1744823;81;21065;-78
2021/05/27 06:51:51;;;;;;;8.50;5.72;;;;;;;19.34;71.44;99658.41;1744707;81;21054;-80
2021/05/27 06:54:17;;;;;;;7.67;6.45;;;;;;;19.42;71.55;99656.53;1744821;81;20887;-79
2021/05/27 06:56:45;;;;;;;7.92;6.35;;;;;;;19.48;70.71;99657.03;1723907;83;20879;-78
2021/05/27 06:59:11;;;;;;;7.30;6.10;;;;;;;19.46;70.39;99655.98;1739445;82;20990;-77
2021/05/27 07:01:38;;;;;;;8.90;5.67;;;;;;;19.50;70.77;99651.05;1739534;82;21541;-79
2021/05/27 07:04:05;;;;;;;7.35;4.90;;;;;;;19.54;70.72;99648.52;1739188;82;20963;-79
2021/05/27 07:06:31;;;;;;;8.63;5.87;;;;;;;19.56;70.41;99654.54;1739424;82;21011;-79
2021/05/27 07:08:58;;;;;;;7.92;5.20;;;;;;;19.57;70.17;99653.92;1739286;82;20872;-79
2021/05/27 07:11:25;;;;;;;8.48;5.45;;;;;;;19.61;70.19;99653.39;1739475;82;20908;-82
2021/05/27 07:13:52;;;;;;;7.33;5.03;;;;;;;19.65;70.14;99649.25;1739361;82;21114;-77
2021/05/27 07:16:19;;;;;;;7.72;5.00;;;;;;;19.69;70.12;99650.91;1739362;82;20935;-79
2021/05/27 07:18:46;;;;;;;7.17;4.92;;;;;;;19.77;70.18;99644.02;1739508;82;20887;-80
2021/05/27 07:21:12;;;;;;;11.90;5.10;;;;;;;19.83;69.82;99637.70;1739530;82;20967;-81
2021/05/27 07:23:38;;;;;;;10.05;5.28;;;;;;;19.91;69.64;99635.79;1739502;82;20900;-80
2021/05/27 07:26:05;;;;;;;8.70;6.05;;;;;;;20.00;69.60;99634.68;1739600;82;21095;-79
2021/05/27 07:28:32;;;;;;;8.05;6.47;;;;;;;20.09;69.33;99632.43;1739544;82;21631;-80
2021/05/27 07:31:00;;;;;;;6.70;5.92;;;;;;;20.17;68.94;99636.09;1739531;82;20987;-78
2021/05/27 07:33:27;;;;;;;6.70;5.55;;;;;;;20.22;69.04;99630.75;1739577;82;21507;-80
2021/05/27 07:35:53;;;;;;;6.15;4.87;;;;;;;20.29;68.57;99628.84;1739677;82;20986;-81
2021/05/27 07:38:19;;;;;;;9.18;4.90;;;;;;;20.36;68.59;99626.70;1739555;82;21087;-78
2021/05/27 07:40:48;;;;;;;12.88;5.87;;;;;;;20.47;68.66;99626.79;1739622;82;21503;-80
2021/05/27 07:43:15;;;;;;;6.25;4.80;;;;;;;20.59;68.43;99621.50;1731568;82;20856;-80
2021/05/27 07:45:41;;;;;;;9.65;5.42;;;;;;;20.73;68.49;99628.41;1751534;81;20947;-80
2021/05/27 07:48:08;;;;;;;7.35;5.40;;;;;;;20.84;68.11;99622.32;1752864;81;20899;-79
2021/05/27 07:50:35;;;;;;;9.00;5.50;;;;;;;20.96;67.91;99619.84;1752874;81;21116;-80
2021/05/27 07:53:02;;;;;;;7.42;5.95;;;;;;;21.06;67.38;99621.09;1752436;81;20998;-80
2021/05/27 07:55:28;;;;;;;11.08;6.17;;;;;;;21.10;66.23;99617.70;1752869;81;20919;-81
2021/05/27 07:57:54;;;;;;;6.17;5.58;;;;;;;21.10;65.73;99614.91;1752646;81;20954;-79
2021/05/27 08:00:21;;;;;;;7.00;4.75;;;;;;;21.09;65.81;99613.31;1752729;81;20986;-79
2021/05/27 08:02:48;;;;;;;7.20;5.05;;;;;;;21.12;65.83;99604.74;1752716;81;21491;-80
2021/05/27 08:05:14;;;;;;;8.65;5.30;;;;;;;21.14;65.43;99607.93;1752559;81;20967;-81
2021/05/27 08:07:42;;;;;;;10.10;5.35;;;;;;;21.17;65.15;99604.37;1752772;81;20982;-79
2021/05/27 08:10:09;;;;;;;6.53;4.47;;;;;;;21.21;65.38;99602.97;1752692;81;20891;-81
2021/05/27 08:12:36;;;;;;;6.92;4.20;;;;;;;21.26;65.50;99604.00;1752734;81;20919;-80
2021/05/27 08:15:06;;;;;;;6.33;4.50;;;;;;;21.30;64.93;99604.02;1752472;81;21099;-79
2021/05/27 08:17:32;;;;;;;7.25;4.80;;;;;;;21.30;64.43;99601.22;1752688;81;21638;-80
2021/05/27 08:20:01;;;;;;;5.80;4.17;;;;;;;21.31;64.67;99600.05;1752745;81;21014;-79
2021/05/27 08:22:27;;;;;;;6.60;4.35;;;;;;;21.34;64.56;99597.86;1752833;81;20895;-78
2021/05/27 08:24:55;;;;;;;7.72;4.97;;;;;;;21.34;64.40;99597.86;1721679;81;20995;-79
2021/05/27 08:27:21;;;;;;;4.65;3.80;;;;;;;21.35;64.49;99595.25;1752751;81;21094;-81
2021/05/27 08:29:47;;;;;;;14.50;4.47;;;;;;;21.41;64.44;99593.67;1752632;81;21003;-79
2021/05/27 08:32:14;;;;;;;5.87;3.25;;;;;;;21.48;64.64;99594.30;1752709;81;20934;-80
2021/05/27 08:34:41;;;;;;;6.92;4.20;;;;;;;21.55;64.29;99592.13;1752700;81;20962;-79
2021/05/27 08:37:07;;;;;;;5.72;4.10;;;;;;;21.56;64.23;99596.55;1752801;81;20926;-80
2021/05/27 08:39:33;;;;;;;8.88;4.40;;;;;;;21.57;63.99;99596.16;1752371;81;21623;-80
2021/05/27 08:42:01;;;;;;;5.53;4.15;;;;;;;21.57;63.93;99596.16;1752717;81;20974;-79
2021/05/27 08:44:27;;;;;;;4.90;3.90;;;;;;;21.61;64.16;99591.38;1752814;81;20990;-79
2021/05/27 08:46:54;;;;;;;6.03;3.85;;;;;;;21.65;64.05;99593.58;1752773;81;20970;-79
2021/05/27 08:49:20;;;;;;;7.10;4.03;;;;;;;21.70;63.88;99593.01;1752679;81;21013;-79
2021/05/27 08:51:47;;;;;;;5.28;3.27;;;;;;;21.72;63.60;99597.59;1752655;81;21878;-79
2021/05/27 08:54:14;;;;;;;6.53;3.75;;;;;;;21.73;63.51;99595.80;1752709;81;20990;-79
2021/05/27 08:56:41;;;;;;;5.00;3.50;;;;;;;21.73;63.56;99594.39;1752157;81;21578;-78
2021/05/27 08:59:07;;;;;;;4.62;3.35;;;;;;;21.72;63.03;99595.61;1752364;81;20903;-80
2021/05/27 09:01:34;;;;;;;7.35;3.50;;;;;;;21.68;62.66;99612.22;1752750;81;20951;-80
2021/05/27 09:04:00;;;;;;;6.00;4.15;;;;;;;21.61;62.23;99615.20;1752501;81;21846;-79
2021/05/27 09:06:26;;;;;;;8.13;4.05;;;;;;;21.50;62.32;99615.14;1752683;81;20899;-78
2021/05/27 09:09:07;;;;;;;11.22;4.65;;;;;;;21.40;62.31;99608.89;1752611;81;20907;-80
2021/05/27 09:11:39;;;;;;;6.03;3.75;;;;;;;21.32;62.49;99611.45;1752509;81;20923;-79
2021/05/27 09:14:07;;;;;;;5.30;3.75;;;;;;;21.24;62.74;99617.62;1752566;81;20875;-79
2021/05/27 09:16:34;;;;;;;7.03;4.45;;;;;;;21.14;62.81;99613.53;1752950;81;21065;-82
2021/05/27 09:19:16;;;;;;;8.23;4.10;;;;;;;21.07;62.83;99612.89;1721712;81;20915;-78
2021/05/27 09:21:45;;;;;;;6.53;5.00;;;;;;;20.98;62.77;99606.84;1752426;81;20907;-78
2021/05/27 09:24:13;;;;;;;9.78;4.62;;;;;;;20.87;62.92;99603.92;1748421;81;20955;-80
2021/05/27 09:26:53;;;;;;;5.78;4.83;;;;;;;20.79;63.19;99597.48;1744651;82;21686;-79
2021/05/27 09:29:20;;;;;;;9.03;5.30;;;;;;;20.74;63.54;99600.64;1740707;82;21655;-77
2021/05/27 09:32:05;;;;;;;12.63;5.72;;;;;;;20.70;63.84;99596.41;1739189;82;20915;-77
2021/05/27 09:34:50;;;;;;;8.43;6.00;;;;;;;20.68;64.19;99593.19;1739212;82;20947;-78
2021/05/27 09:37:20;;;;;;;8.75;5.80;;;;;;;20.68;64.45;99594.59;1739180;82;20927;-79
2021/05/27 09:39:47;;;;;;;9.95;6.05;;;;;;;20.72;64.75;99593.22;1739227;82;20923;-78
2021/05/27 09:42:14;;;;;;;7.12;5.17;;;;;;;20.78;65.17;99593.88;1739300;82;21073;-78
2021/05/27 09:44:42;;;;;;;7.45;5.42;;;;;;;20.89;65.60;99586.15;1739065;82;20991;-77
2021/05/27 09:47:08;;;;;;;10.55;5.05;;;;;;;20.97;65.38;99585.03;1716465;82;20883;-78
2021/05/27 09:49:35;;;;;;;7.00;5.67;;;;;;;21.06;65.43;99585.28;1739356;82;20891;-78
2021/05/27 09:52:21;;;;;;;9.45;6.90;;;;;;;21.16;65.54;99581.16;1739222;82;20959;-80
2021/05/27 09:54:56;;;;;;;10.00;6.53;;;;;;;21.27;65.74;99591.00;1739195;82;21114;-78
2021/05/27 09:57:25;;;;;;;11.33;6.85;;;;;;;21.37;65.68;99583.88;1739216;82;20963;-78
2021/05/27 09:59:55;;;;;;;11.22;6.40;;;;;;;21.40;64.91;99581.67;1739176;82;20931;-80
2021/05/27 10:02:22;;;;;;;8.35;6.85;;;;;;;21.38;64.67;99582.66;1739182;82;21035;-79
2021/05/27 10:05:01;;;;;;;9.03;6.37;;;;;;;21.36;64.51;99585.05;1739314;82;20891;-79
2021/05/27 10:07:49;;;;;;;9.98;7.67;;;;;;;21.34;64.29;99580.42;1739221;82;21090;-78
2021/05/27 10:10:20;;;;;;;11.30;6.90;;;;;;;21.31;64.33;99584.64;1738982;82;21428;-78
2021/05/27 10:12:48;;;;;;;11.75;7.55;;;;;;;21.25;64.06;99578.59;1739224;82;20892;-77
2021/05/27 10:15:17;;;;;;;16.42;7.87;;;;;;;21.17;64.01;99581.97;1739183;82;20943;-78
2021/05/27 10:17:46;;;;;;;10.25;8.43;;;;;;;21.11;64.04;99577.91;1739219;82;20943;-79
2021/05/27 10:20:15;;;;;;;11.35;7.85;;;;;;;21.04;64.12;99575.28;1739332;82;21656;-77
2021/05/27 10:22:45;;;;;;;13.58;8.40;;;;;;;20.98;64.26;99575.45;1739171;82;21604;-77
2021/05/27 10:25:14;;;;;;;10.28;8.00;;;;;;;20.92;64.47;99577.78;1739269;82;20971;-78
2021/05/27 10:27:42;;;;;;;13.00;7.85;;;;;;;20.89;64.79;99574.36;1739449;82;21018;-78
2021/05/27 10:30:10;;;;;;;11.83;7.90;;;;;;;20.87;65.21;99571.73;1739602;82;20864;-79
2021/05/27 10:32:40;;;;;;;15.32;8.00;;;;;;;20.84;65.53;99574.73;1739601;82;21096;-80
2021/05/27 10:35:07;;;;;;;9.65;7.42;;;;;;;20.82;65.63;99570.70;1752469;81;20923;-78
2021/05/27 10:37:43;;;;;;;15.08;7.25;;;;;;;20.79;65.74;99573.69;1752930;81;20914;-80
2021/05/27 10:40:34;;;;;;;14.15;7.45;;;;;;;20.77;65.74;99571.87;1752815;81;20962;-81
2021/05/27 10:43:13;;;;;;;8.40;7.12;;;;;;;20.74;65.82;99568.45;1752951;81;20998;-80
2021/05/27 10:46:06;;;;;;;9.55;7.78;;;;;;;20.71;65.87;99566.44;1752869;81;21566;-80
2021/05/27 10:48:44;;;;;;;7.20;6.45;;;;;;;20.67;65.91;99564.42;1752844;81;20990;-80
2021/05/27 10:51:17;;;;;;;7.92;6.50;;;;;;;20.64;65.98;99562.98;1752907;81;21010;-81
2021/05/27 10:53:48;;;;;;;7.10;6.25;;;;;;;20.61;66.13;99565.17;1751323;81;21026;-79
2021/05/27 10:56:17;;;;;;;9.65;5.65;;;;;;;20.58;66.29;99562.53;1752766;81;21004;-80
2021/05/27 10:58:53;;;;;;;8.58;6.08;;;;;;;20.55;66.48;99570.31;1752260;81;22077;-79
2021/05/27 11:01:34;;;;;;;6.22;5.58;;;;;;;20.51;66.66;99577.86;1752832;81;21034;-78
2021/05/27 11:04:07;;;;;;;15.40;7.08;;;;;;;20.47;66.82;99585.44;1752886;81;21026;-79
2021/05/27 11:06:36;;;;;;;10.58;5.78;;;;;;;20.39;68.04;99598.54;1753037;81;21033;-79
2021/05/27 11:09:16;;;;;;;10.90;6.17;;;;;;;20.23;69.16;99605.80;1752795;81;21069;-80
2021/05/27 11:11:49;;;;;;;11.73;6.20;;;;;;;20.02;70.22;99604.36;1752849;81;21468;-78
2021/05/27 11:14:35;;;;;;;12.05;7.05;;;;;;;19.80;71.54;99602.72;1752988;81;20879;-80
2021/05/27 11:17:14;;;;;;;9.50;6.53;;;;;;;19.60;72.70;99615.47;1752919;81;20918;-80
2021/05/27 11:22:34;;;;;;;11.12;5.83;;;;;;;19.22;74.42;99605.58;1753018;81;20994;-79
2021/05/27 11:25:25;;;;;;;11.08;6.87;;;;;;;19.08;75.19;99604.17;1749170;81;22038;-79
2021/05/27 11:28:13;;;;;;;12.30;7.28;;;;;;;18.99;75.79;99606.41;1746218;82;20927;-78
2021/05/27 11:30:44;;;;;;;12.70;6.10;;;;;;;18.89;76.30;99598.09;1746355;82;21456;-79
2021/05/27 11:33:31;;;;;;;11.53;7.58;;;;;;;18.85;76.71;99601.44;1746234;82;21638;-79
2021/05/27 11:36:05;;;;;;;12.28;7.90;;;;;;;18.82;77.10;99594.61;1746302;82;20919;-78
2021/05/27 11:38:36;;;;;;;14.87;7.25;;;;;;;18.82;77.28;99591.00;1746209;82;21880;-78
2021/05/27 11:41:12;;;;;;;8.90;6.30;;;;;;;18.81;77.45;99586.61;1746204;82;20954;-79
2021/05/27 11:43:44;;;;;;;10.70;6.40;;;;;;;18.81;77.70;99590.80;1725069;82;21354;-78
2021/05/27 11:46:25;;;;;;;8.57;6.60;;;;;;;18.85;77.92;99591.67;1724948;83;20987;-77
2021/05/27 11:51:37;;;;;;;10.70;6.03;;;;;;;18.92;78.11;99584.00;1745774;82;22239;-79
2021/05/27 11:54:09;;;;;;;10.72;6.50;;;;;;;18.95;78.18;99586.03;1745793;82;20951;-79